sensor_id;sensor_type;location;lat;lon;timestamp;pressure;altitude;pressure_sealevel;temperature;humidity
53715;BME280;39608;55.630;37.864;2023-02-28T00:03:33;99928.47;;;-4.66;60.76
53715;BME280;39608;55.630;37.864;2023-02-28T00:08:36;99918.72;;;-4.80;60.87
53715;BME280;39608;55.630;37.864;2023-02-28T00:13:40;99911.81;;;-4.96;60.98
53715;BME280;39608;55.630;37.864;2023-02-28T00:18:43;99913.34;;;-5.02;60.98
53715;BME280;39608;55.630;37.864;2023-02-28T00:23:46;99908.53;;;-5.13;60.75
53715;BME280;39608;55.630;37.864;2023-02-28T00:28:48;99907.97;;;-5.23;60.90
53715;BME280;39608;55.630;37.864;2023-02-28T00:33:52;99896.13;;;-5.27;61.03
53715;BME280;39608;55.630;37.864;2023-02-28T00:38:53;99897.50;;;-5.31;61.03
53715;BME280;39608;55.630;37.864;2023-02-28T00:43:55;99903.50;;;-5.38;60.83
53715;BME280;39608;55.630;37.864;2023-02-28T00:48:59;99892.28;;;-5.40;61.41
53715;BME280;39608;55.630;37.864;2023-02-28T00:54:01;99872.03;;;-5.47;61.33
53715;BME280;39608;55.630;37.864;2023-02-28T00:59:03;99845.25;;;-5.59;61.08
53715;BME280;39608;55.630;37.864;2023-02-28T01:04:06;99860.47;;;-5.46;61.16
53715;BME280;39608;55.630;37.864;2023-02-28T01:09:08;99855.09;;;-5.53;61.15
53715;BME280;39608;55.630;37.864;2023-02-28T01:14:12;99857.81;;;-5.61;61.16
53715;BME280;39608;55.630;37.864;2023-02-28T01:19:16;99852.41;;;-5.68;61.11
53715;BME280;39608;55.630;37.864;2023-02-28T01:24:18;99840.94;;;-5.75;61.09
53715;BME280;39608;55.630;37.864;2023-02-28T01:29:20;99824.19;;;-5.82;61.10
53715;BME280;39608;55.630;37.864;2023-02-28T01:34:23;99817.16;;;-5.90;61.25
53715;BME280;39608;55.630;37.864;2023-02-28T01:39:25;99814.63;;;-5.98;61.23
53715;BME280;39608;55.630;37.864;2023-02-28T01:44:57;99804.06;;;-5.98;60.92
53715;BME280;39608;55.630;37.864;2023-02-28T01:50:04;99797.88;;;-6.06;61.24
53715;BME280;39608;55.630;37.864;2023-02-28T01:55:08;99793.09;;;-6.10;61.07
53715;BME280;39608;55.630;37.864;2023-02-28T02:00:14;99779.00;;;-6.17;61.33
53715;BME280;39608;55.630;37.864;2023-02-28T02:05:20;99760.75;;;-6.27;61.33
53715;BME280;39608;55.630;37.864;2023-02-28T02:10:27;99775.84;;;-6.36;61.53
53715;BME280;39608;55.630;37.864;2023-02-28T02:15:34;99758.44;;;-6.45;61.63
53715;BME280;39608;55.630;37.864;2023-02-28T02:21:00;99751.25;;;-6.51;61.51
53715;BME280;39608;55.630;37.864;2023-02-28T02:26:20;99736.94;;;-6.57;61.66
53715;BME280;39608;55.630;37.864;2023-02-28T02:31:51;99732.50;;;-6.57;61.47
53715;BME280;39608;55.630;37.864;2023-02-28T02:37:08;99737.13;;;-6.59;61.64
53715;BME280;39608;55.630;37.864;2023-02-28T02:42:15;99711.88;;;-6.76;61.77
53715;BME280;39608;55.630;37.864;2023-02-28T02:47:22;99727.28;;;-6.65;62.03
53715;BME280;39608;55.630;37.864;2023-02-28T02:52:33;99717.03;;;-6.60;61.62
53715;BME280;39608;55.630;37.864;2023-02-28T02:57:40;99711.94;;;-6.61;62.13
53715;BME280;39608;55.630;37.864;2023-02-28T03:02:47;99710.28;;;-6.62;61.87
53715;BME280;39608;55.630;37.864;2023-02-28T03:07:52;99701.81;;;-6.58;61.88
53715;BME280;39608;55.630;37.864;2023-02-28T03:13:03;99689.47;;;-6.57;61.97
53715;BME280;39608;55.630;37.864;2023-02-28T03:18:10;99682.06;;;-6.62;62.21
53715;BME280;39608;55.630;37.864;2023-02-28T03:23:21;99661.16;;;-6.63;62.14
53715;BME280;39608;55.630;37.864;2023-02-28T03:28:31;99658.19;;;-6.60;62.21
53715;BME280;39608;55.630;37.864;2023-02-28T03:33:40;99635.88;;;-6.73;62.27
53715;BME280;39608;55.630;37.864;2023-02-28T03:38:49;99649.06;;;-6.58;62.44
53715;BME280;39608;55.630;37.864;2023-02-28T03:43:55;99636.34;;;-6.54;62.25
53715;BME280;39608;55.630;37.864;2023-02-28T03:49:02;99610.34;;;-6.57;62.62
53715;BME280;39608;55.630;37.864;2023-02-28T03:54:11;99612.25;;;-6.51;62.40
53715;BME280;39608;55.630;37.864;2023-02-28T03:59:18;99618.97;;;-6.48;62.68
53715;BME280;39608;55.630;37.864;2023-02-28T04:04:22;99584.22;;;-6.52;62.39
53715;BME280;39608;55.630;37.864;2023-02-28T04:09:25;99585.31;;;-6.46;62.68
53715;BME280;39608;55.630;37.864;2023-02-28T04:14:27;99573.75;;;-6.45;62.58
53715;BME280;39608;55.630;37.864;2023-02-28T04:19:29;99574.84;;;-6.40;62.85
53715;BME280;39608;55.630;37.864;2023-02-28T04:24:33;99571.13;;;-6.30;62.65
53715;BME280;39608;55.630;37.864;2023-02-28T04:29:35;99565.47;;;-6.27;62.54
53715;BME280;39608;55.630;37.864;2023-02-28T04:34:37;99560.84;;;-6.25;62.84
53715;BME280;39608;55.630;37.864;2023-02-28T04:39:41;99570.38;;;-6.24;62.61
53715;BME280;39608;55.630;37.864;2023-02-28T04:44:43;99554.91;;;-6.27;62.33
53715;BME280;39608;55.630;37.864;2023-02-28T04:49:45;99546.09;;;-6.20;62.55
53715;BME280;39608;55.630;37.864;2023-02-28T04:54:49;99521.41;;;-6.12;62.64
53715;BME280;39608;55.630;37.864;2023-02-28T04:59:51;99528.94;;;-6.09;62.17
53715;BME280;39608;55.630;37.864;2023-02-28T05:04:53;99511.91;;;-6.06;62.28
53715;BME280;39608;55.630;37.864;2023-02-28T05:09:56;99495.69;;;-6.03;62.26
53715;BME280;39608;55.630;37.864;2023-02-28T05:14:58;99493.69;;;-6.01;61.83
53715;BME280;39608;55.630;37.864;2023-02-28T05:20:01;99489.22;;;-6.00;61.97
53715;BME280;39608;55.630;37.864;2023-02-28T05:25:08;99471.25;;;-5.90;61.73
53715;BME280;39608;55.630;37.864;2023-02-28T05:30:14;99454.75;;;-5.92;61.60
53715;BME280;39608;55.630;37.864;2023-02-28T05:35:16;99444.69;;;-5.82;61.57
53715;BME280;39608;55.630;37.864;2023-02-28T05:40:20;99429.28;;;-5.78;61.33
53715;BME280;39608;55.630;37.864;2023-02-28T05:45:22;99422.88;;;-5.69;61.01
53715;BME280;39608;55.630;37.864;2023-02-28T05:50:24;99409.53;;;-5.61;60.51
53715;BME280;39608;55.630;37.864;2023-02-28T05:55:27;99389.88;;;-5.52;60.95
53715;BME280;39608;55.630;37.864;2023-02-28T06:00:29;99391.31;;;-5.49;60.65
53715;BME280;39608;55.630;37.864;2023-02-28T06:05:31;99377.31;;;-5.43;60.41
53715;BME280;39608;55.630;37.864;2023-02-28T06:10:35;99384.34;;;-5.28;60.31
53715;BME280;39608;55.630;37.864;2023-02-28T06:15:37;99353.66;;;-5.23;60.03
53715;BME280;39608;55.630;37.864;2023-02-28T06:20:39;99354.94;;;-5.12;59.70
53715;BME280;39608;55.630;37.864;2023-02-28T06:25:44;99328.75;;;-5.00;59.67
53715;BME280;39608;55.630;37.864;2023-02-28T06:30:46;99341.16;;;-4.94;59.18
53715;BME280;39608;55.630;37.864;2023-02-28T06:35:50;99313.13;;;-4.82;59.03
53715;BME280;39608;55.630;37.864;2023-02-28T06:40:57;99310.09;;;-4.72;58.82
53715;BME280;39608;55.630;37.864;2023-02-28T06:46:01;99289.75;;;-4.65;58.81
53715;BME280;39608;55.630;37.864;2023-02-28T06:51:04;99312.78;;;-4.45;58.33
53715;BME280;39608;55.630;37.864;2023-02-28T06:56:10;99285.53;;;-4.12;57.83
53715;BME280;39608;55.630;37.864;2023-02-28T07:01:13;99264.50;;;-3.73;57.70
53715;BME280;39608;55.630;37.864;2023-02-28T07:06:16;99267.25;;;-3.41;57.33
53715;BME280;39608;55.630;37.864;2023-02-28T07:11:20;99232.53;;;-3.33;56.89
53715;BME280;39608;55.630;37.864;2023-02-28T07:16:24;99220.88;;;-3.19;56.23
53715;BME280;39608;55.630;37.864;2023-02-28T07:21:26;99212.06;;;-2.81;56.67
53715;BME280;39608;55.630;37.864;2023-02-28T07:26:29;99213.81;;;-2.68;56.91
53715;BME280;39608;55.630;37.864;2023-02-28T07:31:34;99186.88;;;-2.71;55.92
53715;BME280;39608;55.630;37.864;2023-02-28T07:36:36;99174.00;;;-2.68;55.90
53715;BME280;39608;55.630;37.864;2023-02-28T07:41:39;99170.31;;;-2.67;55.79
53715;BME280;39608;55.630;37.864;2023-02-28T07:46:43;99169.56;;;-2.49;55.44
53715;BME280;39608;55.630;37.864;2023-02-28T07:51:46;99163.84;;;-2.27;56.05
53715;BME280;39608;55.630;37.864;2023-02-28T07:56:49;99158.47;;;-2.02;56.25
53715;BME280;39608;55.630;37.864;2023-02-28T08:01:51;99156.13;;;-1.92;55.55
53715;BME280;39608;55.630;37.864;2023-02-28T08:06:53;99149.75;;;-1.72;56.18
53715;BME280;39608;55.630;37.864;2023-02-28T08:11:59;99148.91;;;-1.54;55.79
53715;BME280;39608;55.630;37.864;2023-02-28T08:17:01;99151.97;;;-1.39;55.42
53715;BME280;39608;55.630;37.864;2023-02-28T08:22:03;99128.16;;;-1.45;55.54
53715;BME280;39608;55.630;37.864;2023-02-28T08:27:07;99119.84;;;-1.37;55.64
53715;BME280;39608;55.630;37.864;2023-02-28T08:32:10;99092.81;;;-1.34;56.04
53715;BME280;39608;55.630;37.864;2023-02-28T08:37:12;99082.69;;;-1.13;55.70
53715;BME280;39608;55.630;37.864;2023-02-28T08:42:15;99063.13;;;-0.95;55.71
53715;BME280;39608;55.630;37.864;2023-02-28T08:47:18;99059.66;;;-0.84;54.96
53715;BME280;39608;55.630;37.864;2023-02-28T08:52:20;99069.72;;;-0.50;54.80
53715;BME280;39608;55.630;37.864;2023-02-28T08:57:23;99109.44;;;-0.37;54.59
53715;BME280;39608;55.630;37.864;2023-02-28T09:02:26;99113.41;;;-0.52;55.21
53715;BME280;39608;55.630;37.864;2023-02-28T09:07:28;99098.91;;;-0.67;55.49
53715;BME280;39608;55.630;37.864;2023-02-28T09:12:34;99083.50;;;-0.77;55.90
53715;BME280;39608;55.630;37.864;2023-02-28T09:17:36;99067.78;;;-0.91;56.53
53715;BME280;39608;55.630;37.864;2023-02-28T09:22:38;99055.03;;;-1.00;56.18
53715;BME280;39608;55.630;37.864;2023-02-28T09:27:41;99024.84;;;-1.06;56.65
53715;BME280;39608;55.630;37.864;2023-02-28T09:32:43;99040.34;;;-1.03;56.61
53715;BME280;39608;55.630;37.864;2023-02-28T09:37:54;99036.75;;;-1.09;56.34
53715;BME280;39608;55.630;37.864;2023-02-28T09:42:59;99034.19;;;-1.04;57.08
53715;BME280;39608;55.630;37.864;2023-02-28T09:48:04;99042.06;;;-0.97;56.72
53715;BME280;39608;55.630;37.864;2023-02-28T09:53:19;99035.00;;;-0.91;56.79
53715;BME280;39608;55.630;37.864;2023-02-28T09:58:29;99031.53;;;-0.68;56.69
53715;BME280;39608;55.630;37.864;2023-02-28T10:03:36;99013.34;;;-0.59;57.13
53715;BME280;39608;55.630;37.864;2023-02-28T10:08:45;99018.78;;;-0.54;56.86
53715;BME280;39608;55.630;37.864;2023-02-28T10:13:57;98990.09;;;-0.64;56.61
53715;BME280;39608;55.630;37.864;2023-02-28T10:19:04;98998.31;;;-0.77;57.29
53715;BME280;39608;55.630;37.864;2023-02-28T10:24:16;98975.63;;;-0.80;57.22
53715;BME280;39608;55.630;37.864;2023-02-28T10:29:22;98979.44;;;-0.64;57.49
53715;BME280;39608;55.630;37.864;2023-02-28T10:34:24;98959.84;;;-0.58;57.28
53715;BME280;39608;55.630;37.864;2023-02-28T10:39:41;98945.38;;;-0.50;56.88
53715;BME280;39608;55.630;37.864;2023-02-28T10:44:45;98944.22;;;-0.54;57.40
53715;BME280;39608;55.630;37.864;2023-02-28T10:49:48;98945.72;;;-0.58;57.28
53715;BME280;39608;55.630;37.864;2023-02-28T10:55:15;98948.34;;;-0.46;56.99
53715;BME280;39608;55.630;37.864;2023-02-28T11:00:24;98926.28;;;-0.59;57.16
53715;BME280;39608;55.630;37.864;2023-02-28T11:05:28;98930.56;;;-0.58;57.20
53715;BME280;39608;55.630;37.864;2023-02-28T11:10:32;98908.75;;;-0.55;57.92
53715;BME280;39608;55.630;37.864;2023-02-28T11:15:37;98898.94;;;-0.54;58.25
53715;BME280;39608;55.630;37.864;2023-02-28T11:20:40;98901.38;;;-0.64;57.89
53715;BME280;39608;55.630;37.864;2023-02-28T11:25:47;98890.03;;;-0.60;57.86
53715;BME280;39608;55.630;37.864;2023-02-28T11:31:01;98884.47;;;-0.58;58.31
53715;BME280;39608;55.630;37.864;2023-02-28T11:36:11;98878.34;;;-0.59;58.59
53715;BME280;39608;55.630;37.864;2023-02-28T11:41:28;98887.00;;;-0.52;58.17
53715;BME280;39608;55.630;37.864;2023-02-28T11:46:37;98885.13;;;-0.51;58.33
53715;BME280;39608;55.630;37.864;2023-02-28T11:51:50;98874.97;;;-0.54;58.47
53715;BME280;39608;55.630;37.864;2023-02-28T11:57:00;98869.16;;;-0.51;58.56
53715;BME280;39608;55.630;37.864;2023-02-28T12:02:20;98865.78;;;-0.46;58.92
53715;BME280;39608;55.630;37.864;2023-02-28T12:07:32;98864.97;;;-0.47;58.69
53715;BME280;39608;55.630;37.864;2023-02-28T12:12:43;98858.84;;;-0.47;58.94
53715;BME280;39608;55.630;37.864;2023-02-28T12:18:07;98841.81;;;-0.46;59.10
53715;BME280;39608;55.630;37.864;2023-02-28T12:23:26;98864.75;;;-0.45;59.71
53715;BME280;39608;55.630;37.864;2023-02-28T12:28:39;98839.22;;;-0.58;59.62
53715;BME280;39608;55.630;37.864;2023-02-28T12:33:48;98849.84;;;-0.58;60.24
53715;BME280;39608;55.630;37.864;2023-02-28T12:38:55;98836.44;;;-0.63;60.31
53715;BME280;39608;55.630;37.864;2023-02-28T12:44:02;98834.03;;;-0.65;60.73
53715;BME280;39608;55.630;37.864;2023-02-28T12:49:10;98810.84;;;-0.64;60.74
53715;BME280;39608;55.630;37.864;2023-02-28T12:54:21;98815.75;;;-0.73;60.50
53715;BME280;39608;55.630;37.864;2023-02-28T12:59:32;98791.03;;;-0.86;61.70
53715;BME280;39608;55.630;37.864;2023-02-28T13:04:57;98792.75;;;-0.79;61.52
53715;BME280;39608;55.630;37.864;2023-02-28T13:10:05;98756.34;;;-0.91;61.19
53715;BME280;39608;55.630;37.864;2023-02-28T13:15:16;98756.28;;;-0.79;61.49
53715;BME280;39608;55.630;37.864;2023-02-28T13:20:25;98749.34;;;-0.80;61.60
53715;BME280;39608;55.630;37.864;2023-02-28T13:25:52;98755.41;;;-0.67;61.39
53715;BME280;39608;55.630;37.864;2023-02-28T13:31:05;98757.78;;;-0.71;62.12
53715;BME280;39608;55.630;37.864;2023-02-28T13:36:22;98757.78;;;-0.71;62.06
53715;BME280;39608;55.630;37.864;2023-02-28T13:41:54;98762.72;;;-0.63;61.76
53715;BME280;39608;55.630;37.864;2023-02-28T13:52:36;98723.03;;;-0.47;60.51
53715;BME280;39608;55.630;37.864;2023-02-28T13:57:57;98713.06;;;-0.52;61.50
53715;BME280;39608;55.630;37.864;2023-02-28T14:03:10;98713.56;;;-0.55;62.29
53715;BME280;39608;55.630;37.864;2023-02-28T14:08:20;98711.78;;;-0.66;62.30
53715;BME280;39608;55.630;37.864;2023-02-28T14:13:42;98695.41;;;-0.58;62.44
53715;BME280;39608;55.630;37.864;2023-02-28T14:18:50;98721.53;;;-0.55;62.97
53715;BME280;39608;55.630;37.864;2023-02-28T14:24:19;98716.38;;;-0.45;63.03
53715;BME280;39608;55.630;37.864;2023-02-28T14:29:33;98716.47;;;-0.40;62.49
53715;BME280;39608;55.630;37.864;2023-02-28T14:34:42;98698.66;;;-0.39;63.42
53715;BME280;39608;55.630;37.864;2023-02-28T14:39:48;98693.06;;;-0.38;63.21
53715;BME280;39608;55.630;37.864;2023-02-28T14:44:53;98685.97;;;-0.32;62.78
53715;BME280;39608;55.630;37.864;2023-02-28T14:49:57;98690.16;;;-0.36;63.78
53715;BME280;39608;55.630;37.864;2023-02-28T14:55:04;98665.31;;;-0.42;64.15
53715;BME280;39608;55.630;37.864;2023-02-28T15:00:14;98675.72;;;-0.40;63.58
53715;BME280;39608;55.630;37.864;2023-02-28T15:05:23;98653.03;;;-0.43;64.15
53715;BME280;39608;55.630;37.864;2023-02-28T15:10:28;98659.78;;;-0.35;64.28
53715;BME280;39608;55.630;37.864;2023-02-28T15:15:40;98669.00;;;-0.26;64.21
53715;BME280;39608;55.630;37.864;2023-02-28T15:20:44;98673.28;;;-0.25;64.41
53715;BME280;39608;55.630;37.864;2023-02-28T15:25:49;98671.50;;;-0.19;64.76
53715;BME280;39608;55.630;37.864;2023-02-28T15:30:56;98658.72;;;-0.17;64.77
53715;BME280;39608;55.630;37.864;2023-02-28T15:36:14;98667.66;;;-0.06;64.65
53715;BME280;39608;55.630;37.864;2023-02-28T15:41:26;98655.44;;;-0.02;64.77
53715;BME280;39608;55.630;37.864;2023-02-28T15:46:29;98644.00;;;-0.03;64.58
53715;BME280;39608;55.630;37.864;2023-02-28T15:51:33;98625.25;;;-0.08;64.67
53715;BME280;39608;55.630;37.864;2023-02-28T15:56:42;98633.97;;;0.05;64.77
53715;BME280;39608;55.630;37.864;2023-02-28T16:01:45;98625.53;;;0.13;64.97
53715;BME280;39608;55.630;37.864;2023-02-28T16:07:00;98624.44;;;0.14;64.85
53715;BME280;39608;55.630;37.864;2023-02-28T16:12:05;98626.81;;;0.10;65.04
53715;BME280;39608;55.630;37.864;2023-02-28T16:17:20;98612.00;;;0.20;65.42
53715;BME280;39608;55.630;37.864;2023-02-28T16:22:23;98613.56;;;0.15;65.53
53715;BME280;39608;55.630;37.864;2023-02-28T16:27:32;98622.72;;;0.25;65.38
53715;BME280;39608;55.630;37.864;2023-02-28T16:32:35;98614.19;;;0.23;65.96
53715;BME280;39608;55.630;37.864;2023-02-28T16:37:37;98608.34;;;0.26;65.67
53715;BME280;39608;55.630;37.864;2023-02-28T16:42:40;98614.59;;;0.37;65.73
53715;BME280;39608;55.630;37.864;2023-02-28T16:47:43;98622.63;;;0.42;65.14
53715;BME280;39608;55.630;37.864;2023-02-28T16:52:45;98617.13;;;0.48;65.62
53715;BME280;39608;55.630;37.864;2023-02-28T16:57:51;98591.03;;;0.56;65.94
53715;BME280;39608;55.630;37.864;2023-02-28T17:02:54;98591.03;;;0.56;65.87
53715;BME280;39608;55.630;37.864;2023-02-28T17:07:56;98591.81;;;0.51;65.50
53715;BME280;39608;55.630;37.864;2023-02-28T17:12:59;98588.56;;;0.49;65.43
53715;BME280;39608;55.630;37.864;2023-02-28T17:18:01;98573.31;;;0.44;65.76
53715;BME280;39608;55.630;37.864;2023-02-28T17:23:03;98575.75;;;0.46;66.30
53715;BME280;39608;55.630;37.864;2023-02-28T17:28:08;98566.94;;;0.45;66.48
53715;BME280;39608;55.630;37.864;2023-02-28T17:33:10;98577.63;;;0.45;66.26
53715;BME280;39608;55.630;37.864;2023-02-28T17:38:15;98576.06;;;0.49;66.08
53715;BME280;39608;55.630;37.864;2023-02-28T17:43:19;98577.91;;;0.49;66.29
53715;BME280;39608;55.630;37.864;2023-02-28T17:48:21;98574.44;;;0.48;65.64
53715;BME280;39608;55.630;37.864;2023-02-28T17:53:23;98615.06;;;0.56;65.37
53715;BME280;39608;55.630;37.864;2023-02-28T17:58:26;98624.69;;;0.12;64.92
53715;BME280;39608;55.630;37.864;2023-02-28T18:03:28;98601.94;;;-0.40;65.14
53715;BME280;39608;55.630;37.864;2023-02-28T18:08:32;98618.75;;;-0.73;65.37
53715;BME280;39608;55.630;37.864;2023-02-28T18:13:37;98622.69;;;-0.93;65.68
53715;BME280;39608;55.630;37.864;2023-02-28T18:18:39;98615.19;;;-1.13;65.76
53715;BME280;39608;55.630;37.864;2023-02-28T18:23:43;98630.16;;;-1.24;65.78
53715;BME280;39608;55.630;37.864;2023-02-28T18:28:49;98628.22;;;-1.28;66.20
53715;BME280;39608;55.630;37.864;2023-02-28T18:33:51;98634.28;;;-1.33;65.93
53715;BME280;39608;55.630;37.864;2023-02-28T18:38:54;98636.47;;;-1.30;65.99
53715;BME280;39608;55.630;37.864;2023-02-28T18:44:01;98649.28;;;-1.27;66.61
53715;BME280;39608;55.630;37.864;2023-02-28T18:49:03;98665.22;;;-1.27;66.17
53715;BME280;39608;55.630;37.864;2023-02-28T18:54:05;98646.28;;;-1.30;65.33
53715;BME280;39608;55.630;37.864;2023-02-28T18:59:09;98647.50;;;-1.21;65.52
53715;BME280;39608;55.630;37.864;2023-02-28T19:04:12;98641.56;;;-1.11;65.18
53715;BME280;39608;55.630;37.864;2023-02-28T19:09:14;98656.00;;;-1.07;65.01
53715;BME280;39608;55.630;37.864;2023-02-28T19:14:18;98642.53;;;-1.00;64.17
53715;BME280;39608;55.630;37.864;2023-02-28T19:19:21;98641.16;;;-1.03;63.66
53715;BME280;39608;55.630;37.864;2023-02-28T19:24:23;98632.16;;;-1.02;63.06
53715;BME280;39608;55.630;37.864;2023-02-28T19:29:26;98634.31;;;-0.99;62.46
53715;BME280;39608;55.630;37.864;2023-02-28T19:34:28;98643.94;;;-0.98;62.34
53715;BME280;39608;55.630;37.864;2023-02-28T19:39:31;98635.38;;;-1.00;60.91
53715;BME280;39608;55.630;37.864;2023-02-28T19:44:42;98641.81;;;-0.96;61.11
53715;BME280;39608;55.630;37.864;2023-02-28T19:49:44;98620.78;;;-0.97;60.92
53715;BME280;39608;55.630;37.864;2023-02-28T19:54:46;98621.91;;;-0.93;59.97
53715;BME280;39608;55.630;37.864;2023-02-28T19:59:49;98618.50;;;-0.89;60.26
53715;BME280;39608;55.630;37.864;2023-02-28T20:04:51;98617.47;;;-0.88;60.63
53715;BME280;39608;55.630;37.864;2023-02-28T20:09:54;98633.75;;;-0.84;59.98
53715;BME280;39608;55.630;37.864;2023-02-28T20:14:57;98621.00;;;-0.82;59.78
53715;BME280;39608;55.630;37.864;2023-02-28T20:20:00;98624.88;;;-0.90;59.78
53715;BME280;39608;55.630;37.864;2023-02-28T20:25:04;98622.44;;;-0.91;59.64
53715;BME280;39608;55.630;37.864;2023-02-28T20:30:11;98623.34;;;-0.86;58.74
53715;BME280;39608;55.630;37.864;2023-02-28T20:35:13;98616.66;;;-0.88;58.71
53715;BME280;39608;55.630;37.864;2023-02-28T20:40:15;98604.97;;;-0.87;58.73
53715;BME280;39608;55.630;37.864;2023-02-28T20:45:19;98608.09;;;-0.90;58.91
53715;BME280;39608;55.630;37.864;2023-02-28T20:50:21;98616.00;;;-0.95;58.87
53715;BME280;39608;55.630;37.864;2023-02-28T20:55:23;98604.06;;;-1.10;57.97
53715;BME280;39608;55.630;37.864;2023-02-28T21:00:26;98624.06;;;-1.24;56.73
53715;BME280;39608;55.630;37.864;2023-02-28T21:05:28;98632.06;;;-1.36;57.02
53715;BME280;39608;55.630;37.864;2023-02-28T21:10:31;98621.97;;;-1.51;56.71
53715;BME280;39608;55.630;37.864;2023-02-28T21:15:37;98611.38;;;-1.63;56.52
53715;BME280;39608;55.630;37.864;2023-02-28T21:20:39;98633.25;;;-1.73;56.13
53715;BME280;39608;55.630;37.864;2023-02-28T21:25:41;98620.34;;;-1.81;55.45
53715;BME280;39608;55.630;37.864;2023-02-28T21:30:44;98634.00;;;-1.89;54.54
53715;BME280;39608;55.630;37.864;2023-02-28T21:35:46;98642.44;;;-1.92;53.97
53715;BME280;39608;55.630;37.864;2023-02-28T21:40:48;98648.69;;;-1.98;54.84
53715;BME280;39608;55.630;37.864;2023-02-28T21:45:53;98642.00;;;-2.01;54.89
53715;BME280;39608;55.630;37.864;2023-02-28T21:50:55;98638.91;;;-2.10;54.97
53715;BME280;39608;55.630;37.864;2023-02-28T21:55:59;98643.06;;;-2.14;54.12
53715;BME280;39608;55.630;37.864;2023-02-28T22:01:07;98641.09;;;-2.18;54.87
53715;BME280;39608;55.630;37.864;2023-02-28T22:06:11;98654.03;;;-2.22;54.56
53715;BME280;39608;55.630;37.864;2023-02-28T22:11:15;98647.00;;;-2.28;54.81
53715;BME280;39608;55.630;37.864;2023-02-28T22:16:19;98649.78;;;-2.35;53.55
53715;BME280;39608;55.630;37.864;2023-02-28T22:21:22;98652.31;;;-2.40;54.03
53715;BME280;39608;55.630;37.864;2023-02-28T22:26:24;98649.53;;;-2.45;54.19
53715;BME280;39608;55.630;37.864;2023-02-28T22:31:29;98651.88;;;-2.49;54.03
53715;BME280;39608;55.630;37.864;2023-02-28T22:36:31;98658.91;;;-2.54;53.46
53715;BME280;39608;55.630;37.864;2023-02-28T22:41:34;98645.50;;;-2.60;53.01
53715;BME280;39608;55.630;37.864;2023-02-28T22:46:37;98645.97;;;-2.63;53.18
53715;BME280;39608;55.630;37.864;2023-02-28T22:51:39;98650.69;;;-2.65;53.14
53715;BME280;39608;55.630;37.864;2023-02-28T22:56:41;98652.19;;;-2.69;53.36
53715;BME280;39608;55.630;37.864;2023-02-28T23:01:45;98642.63;;;-2.70;52.93
53715;BME280;39608;55.630;37.864;2023-02-28T23:06:47;98642.25;;;-2.73;53.07
53715;BME280;39608;55.630;37.864;2023-02-28T23:11:49;98641.69;;;-2.76;52.59
53715;BME280;39608;55.630;37.864;2023-02-28T23:16:53;98650.47;;;-2.75;52.37
53715;BME280;39608;55.630;37.864;2023-02-28T23:21:56;98639.16;;;-2.82;52.75
53715;BME280;39608;55.630;37.864;2023-02-28T23:27:00;98644.34;;;-2.76;52.55
53715;BME280;39608;55.630;37.864;2023-02-28T23:32:05;98648.50;;;-2.80;52.28
53715;BME280;39608;55.630;37.864;2023-02-28T23:37:07;98640.97;;;-2.83;52.39
53715;BME280;39608;55.630;37.864;2023-02-28T23:42:09;98634.72;;;-2.88;51.97
53715;BME280;39608;55.630;37.864;2023-02-28T23:47:12;98641.19;;;-2.84;52.51
53715;BME280;39608;55.630;37.864;2023-02-28T23:52:15;98634.16;;;-2.90;51.97
53715;BME280;39608;55.630;37.864;2023-02-28T23:57:17;98631.97;;;-2.94;52.58
